Terminal Aerodrome Forecast
Issued by NWS

Home | Current Version | Previous Version | Graphics & Text | Print | Product List | Glossary On
Versions: 1 2 3 4 5 6 7 8 9 10 11 12 13 14 15 16 17 18 19
000
FTUS43 KABR 260500 AAB
TAFPIR
TAF AMD
KPIR 260508Z 2605/2624 31023G29KT P6SM OVC025
     FM261200 34016G25KT P6SM OVC015
     FM261500 34012KT P6SM OVC025
     FM261800 36006KT P6SM OVC050=

USA.gov is the U.S. government's official web portal to all federal, state and local government web resources and services.